Dolores, Spain
Current Conditions -  °F | °C
As of 9:30 AM on Saturday 29 Nov 2014 (Local Time) from LEAL Reporting Station
Broken Clouds Broken Clouds  
Wind Chill: 59°   Ceiling: 4000
Heat Index: 59°   Visibility: 5mi
Dew Point: 57°   Wind: 7mph
Humidity: 94%   Direction: 260°W
Pressure: 29.29"   Gusts: NA
Location:  38.14°N, 0.77°W
Report Text: LEAL 290830Z 26006KT 8000 FEW025 BKN040 15/14 Q0992 NOSIG
Loading
Personal Weather Stations






























Interactive Weather Map New forecast layout! Learn more

10-Day Weather Forecast

Advertisements
Track Severe Weather on mobile